Terminal Aerodrome Forecast
Issued by NWS

Home | Current Version | Previous Version | Text Only | Print | Product List | Glossary On
Versions: 1 2 3 4 5 6 7 8 9 10 11 12 13 14 15 16 17 18 19 20 21 22 23 24 25 26
000
FTUS45 KRIW 160525
TAFCPR
TAF
KCPR 160525Z 1606/1706 06010KT P6SM VCSH SCT060 BKN080
      TEMPO 1607/1611 02012KT 4SM -TSRA SCT025 BKN040CB
     FM161400 VRB06KT P6SM SCT020 BKN040
     FM162000 09012G18KT P6SM VCTS SCT050 BKN070CB
     FM170400 05010KT P6SM BKN090=

USA.gov is the U.S. government's official web portal to all federal, state and local government web resources and services.